Time;durP1;ratioP1;P1;durP2;ratioP2;P2;SDS_P1;SDS_P2;PMS_P1;PMS_P2;Temp;Humidity;BMP_temperature;BMP_pressure;BME280_temperature;BME280_humidity;BME280_pressure;Samples;Min_cycle;Max_cycle;Signal;HPM_P1;HPM_P2
2022/03/24 00:00:38;;;;;;;41.08;32.40;;;;;;;7.40;66.33;102870.03;5276073;28;20460;-68
2022/03/24 00:03:10;;;;;;;44.97;33.42;;;;;;;7.35;66.82;102874.56;5277128;28;20020;-69
2022/03/24 00:05:41;;;;;;;41.65;33.67;;;;;;;7.38;65.97;102877.91;5277111;28;20017;-67
2022/03/24 00:08:14;;;;;;;41.30;33.03;;;;;;;7.27;66.95;102872.25;5275514;28;20473;-69
2022/03/24 00:10:45;;;;;;;46.15;33.30;;;;;;;7.25;66.93;102872.31;5272943;28;20093;-67
2022/03/24 00:13:16;;;;;;;42.90;33.88;;;;;;;7.12;67.79;102868.47;5274785;28;20056;-70
2022/03/24 00:15:47;;;;;;;41.25;32.50;;;;;;;7.11;66.33;102869.38;5276052;28;20020;-67
2022/03/24 00:18:19;;;;;;;45.08;34.20;;;;;;;7.03;68.00;102871.44;5275038;28;20020;-68
2022/03/24 00:20:51;;;;;;;43.58;33.38;;;;;;;7.12;67.17;102865.84;5275961;28;20028;-69
2022/03/24 00:23:22;;;;;;;49.30;35.95;;;;;;;6.96;68.56;102873.41;5275388;28;20028;-68
2022/03/24 00:25:54;;;;;;;51.05;35.90;;;;;;;6.99;68.99;102862.88;5276840;28;20032;-68
2022/03/24 00:28:26;;;;;;;46.25;33.22;;;;;;;6.96;67.40;102860.38;5275215;28;20564;-67
2022/03/24 00:30:58;;;;;;;43.90;32.03;;;;;;;6.93;68.46;102870.06;5276441;28;20130;-69
2022/03/24 00:33:29;;;;;;;45.60;32.90;;;;;;;6.69;70.73;102856.19;5276668;28;20033;-68
2022/03/24 00:36:01;;;;;;;42.72;32.10;;;;;;;6.70;70.34;102868.28;5276751;28;20052;-68
2022/03/24 00:38:32;;;;;;;42.70;32.55;;;;;;;6.65;69.24;102863.25;5275123;28;20500;-67
2022/03/24 00:41:04;;;;;;;44.05;33.83;;;;;;;6.65;69.98;102858.06;5275733;28;20378;-68
2022/03/24 00:43:37;;;;;;;44.78;32.92;;;;;;;6.60;70.66;102853.94;5275726;28;20397;-68
2022/03/24 00:46:09;;;;;;;48.40;32.63;;;;;;;6.60;70.60;102851.31;5275338;28;20689;-67
2022/03/24 00:48:40;;;;;;;43.22;31.67;;;;;;;6.53;70.50;102853.28;5276138;28;20052;-69
2022/03/24 00:51:12;;;;;;;43.95;33.95;;;;;;;6.55;70.95;102854.94;5276165;28;20020;-67
2022/03/24 00:53:43;;;;;;;46.78;33.92;;;;;;;6.52;71.55;102851.59;5274871;28;20035;-70
2022/03/24 00:56:15;;;;;;;46.97;34.08;;;;;;;6.53;71.76;102861.09;5275990;28;20024;-67
2022/03/24 00:58:46;;;;;;;45.13;32.40;;;;;;;6.44;71.29;102851.00;5276305;28;20595;-67
2022/03/24 01:01:17;;;;;;;45.55;31.67;;;;;;;6.34;70.43;102845.28;5273948;28;20482;-69
2022/03/24 01:03:49;;;;;;;47.83;34.35;;;;;;;6.31;71.61;102842.78;5275399;28;20024;-67
2022/03/24 01:06:25;;;;;;;52.47;34.17;;;;;;;6.36;73.08;102840.00;5275353;28;20066;-68
2022/03/24 01:08:56;;;;;;;48.47;34.03;;;;;;;6.41;71.71;102841.56;5275286;28;20028;-68
2022/03/24 01:11:27;;;;;;;51.03;33.33;;;;;;;6.33;72.74;102833.19;5275465;28;20039;-67
2022/03/24 01:14:01;;;;;;;48.50;32.15;;;;;;;6.28;73.08;102843.72;5275147;28;20042;-69
2022/03/24 01:16:32;;;;;;;50.80;32.28;;;;;;;6.20;72.94;102842.28;5275222;28;20549;-67
2022/03/24 01:19:04;;;;;;;44.33;31.75;;;;;;;6.21;71.19;102844.88;5274354;28;20024;-68
2022/03/24 01:21:36;;;;;;;46.40;32.33;;;;;;;6.15;72.41;102836.41;5275982;28;20024;-67
2022/03/24 01:24:08;;;;;;;46.47;31.95;;;;;;;6.15;72.41;102839.00;5274855;28;20398;-67
2022/03/24 01:26:39;;;;;;;47.17;32.30;;;;;;;6.12;72.27;102839.09;5274434;28;20024;-67
2022/03/24 01:29:12;;;;;;;46.17;30.33;;;;;;;6.14;72.00;102832.09;5275258;28;20035;-67
2022/03/24 01:31:43;;;;;;;41.65;30.88;;;;;;;6.11;72.92;102837.41;5275923;28;20021;-67
2022/03/24 01:34:16;;;;;;;45.75;30.83;;;;;;;6.04;72.45;102832.41;5275202;28;20078;-68
2022/03/24 01:36:48;;;;;;;;;;;;;;;6.58;68.09;102831.38;5274555;28;20024;-67
2022/03/24 01:39:19;;;;;;;41.73;30.77;;;;;;;6.09;71.98;102821.84;5275114;28;19912;-70
2022/03/24 01:41:50;;;;;;;42.53;30.73;;;;;;;6.02;72.89;102821.22;5275253;28;20477;-67
2022/03/24 01:44:23;;;;;;;40.90;29.70;;;;;;;5.96;73.45;102816.22;5275058;28;20531;-68
2022/03/24 01:47:00;;;;;;;46.15;30.88;;;;;;;6.02;73.33;102812.53;5273582;28;20091;-67
2022/03/24 01:49:34;;;;;;;47.55;32.85;;;;;;;5.91;75.49;102810.28;5273806;28;20090;-70
2022/03/24 01:52:07;;;;;;;45.42;33.33;;;;;;;5.93;74.52;102810.25;5275531;28;20108;-67
2022/03/24 01:54:42;;;;;;;47.03;30.65;;;;;;;6.02;74.18;102815.13;5274017;28;20170;-68
2022/03/24 01:57:15;;;;;;;45.88;32.22;;;;;;;5.95;73.32;102811.06;5274565;28;20565;-69
2022/03/24 01:59:47;;;;;;;52.85;32.25;;;;;;;5.97;73.33;102806.66;5275041;28;20043;-67
2022/03/24 02:02:20;;;;;;;46.07;33.03;;;;;;;5.94;74.85;102810.19;5274105;28;20073;-68
2022/03/24 02:04:52;;;;;;;44.85;31.65;;;;;;;5.87;72.49;102803.47;5273530;28;20020;-68
2022/03/24 02:07:23;;;;;;;43.15;30.52;;;;;;;5.82;73.28;102814.03;5275113;28;20067;-67
2022/03/24 02:09:55;;;;;;;46.28;32.65;;;;;;;5.75;73.34;102802.13;5275127;28;20090;-68
2022/03/24 02:12:26;;;;;;;44.17;30.60;;;;;;;5.72;73.85;102809.19;5273542;28;20127;-67
2022/03/24 02:14:59;;;;;;;46.53;31.77;;;;;;;5.67;73.09;102805.88;5272770;28;20093;-67
2022/03/24 02:17:30;;;;;;;46.38;31.08;;;;;;;5.55;75.76;102807.13;5273648;28;20020;-70
2022/03/24 02:20:02;;;;;;;44.58;31.10;;;;;;;5.60;75.51;102802.63;5272668;28;20070;-67
2022/03/24 02:22:33;;;;;;;48.47;31.30;;;;;;;5.58;75.06;102794.03;5273831;28;20056;-68
2022/03/24 02:25:07;;;;;;;41.40;30.48;;;;;;;5.54;75.39;102802.84;5274604;28;20024;-67
2022/03/24 02:27:39;;;;;;;48.65;30.95;;;;;;;5.54;76.47;102795.91;5274946;28;20029;-67
2022/03/24 02:30:11;;;;;;;48.33;30.80;;;;;;;5.55;76.01;102805.38;5274470;28;20102;-67
2022/03/24 02:32:42;;;;;;;47.53;31.33;;;;;;;5.50;75.85;102804.69;5273720;28;20520;-68
2022/03/24 02:35:14;;;;;;;41.97;29.92;;;;;;;5.56;76.08;102809.69;5273102;28;20359;-67
2022/03/24 02:37:45;;;;;;;43.58;32.50;;;;;;;5.54;76.33;102806.28;5270450;28;20024;-67
2022/03/24 02:40:16;;;;;;;43.63;30.70;;;;;;;5.44;75.44;102804.88;5272140;28;20093;-67
2022/03/24 02:42:48;;;;;;;40.45;29.23;;;;;;;5.40;75.19;102805.03;5272898;28;20023;-69
2022/03/24 02:45:19;;;;;;;44.58;30.10;;;;;;;5.35;74.98;102805.19;5273417;28;20036;-69
2022/03/24 02:47:50;;;;;;;43.13;30.35;;;;;;;5.25;76.01;102808.97;5274560;28;20100;-67
2022/03/24 02:50:22;;;;;;;40.15;29.38;;;;;;;5.23;75.44;102802.97;5273594;28;20060;-68
2022/03/24 02:52:53;;;;;;;44.88;29.77;;;;;;;5.20;75.87;102810.84;5274130;28;20097;-66
2022/03/24 02:55:25;;;;;;;39.47;29.20;;;;;;;5.23;76.91;102805.56;5274391;28;20023;-67
2022/03/24 02:57:57;;;;;;;41.77;29.80;;;;;;;5.16;75.94;102804.06;5274108;28;20046;-68
2022/03/24 03:00:28;;;;;;;44.05;31.27;;;;;;;5.05;76.21;102807.81;5272396;28;20037;-67
2022/03/24 03:03:00;;;;;;;44.38;30.73;;;;;;;5.08;76.89;102802.53;5276095;28;20028;-67
2022/03/24 03:05:31;;;;;;;39.10;29.65;;;;;;;5.07;77.19;102805.16;5276869;28;20093;-67
2022/03/24 03:08:02;;;;;;;42.85;31.27;;;;;;;5.03;76.47;102799.22;5278206;28;20042;-67
2022/03/24 03:10:34;;;;;;;41.30;31.48;;;;;;;5.01;77.00;102800.16;5275836;28;20043;-68
2022/03/24 03:13:08;;;;;;;45.40;30.60;;;;;;;5.02;75.04;102794.91;5277584;28;20049;-66
2022/03/24 03:15:39;;;;;;;47.20;31.55;;;;;;;4.97;75.50;102807.22;5279015;28;20016;-66
2022/03/24 03:18:10;;;;;;;42.95;31.20;;;;;;;4.92;76.42;102809.06;5277860;28;20030;-67
2022/03/24 03:20:42;;;;;;;44.38;32.10;;;;;;;4.91;76.46;102801.34;5275100;28;20032;-69
2022/03/24 03:23:14;;;;;;;46.65;31.70;;;;;;;4.88;75.49;102804.84;5277960;28;20501;-67
2022/03/24 03:25:45;;;;;;;44.63;32.60;;;;;;;4.92;76.61;102797.84;5277948;28;20028;-69
2022/03/24 03:28:16;;;;;;;45.20;31.15;;;;;;;4.94;76.32;102798.66;5278205;28;20039;-66
2022/03/24 03:30:48;;;;;;;45.03;32.53;;;;;;;4.88;77.30;102797.06;5276314;28;20047;-68
2022/03/24 03:33:19;;;;;;;43.10;31.92;;;;;;;4.87;79.25;102806.63;5277213;28;20032;-67
2022/03/24 03:35:51;;;;;;;45.45;32.50;;;;;;;4.90;78.12;102802.25;5277921;28;20043;-67
2022/03/24 03:38:24;;;;;;;46.05;33.72;;;;;;;4.74;79.31;102807.88;5276456;28;20036;-68
2022/03/24 03:40:55;;;;;;;46.53;30.88;;;;;;;4.76;77.97;102802.63;5277743;28;20012;-69
2022/03/24 03:43:26;;;;;;;43.13;31.33;;;;;;;4.74;76.50;102805.28;5275663;28;20435;-68
2022/03/24 03:45:58;;;;;;;46.42;30.98;;;;;;;4.63;77.99;102799.53;5276906;28;20382;-67
2022/03/24 03:48:30;;;;;;;45.88;32.00;;;;;;;4.60;79.16;102799.63;5276922;28;20227;-68
2022/03/24 03:51:02;;;;;;;43.35;32.47;;;;;;;4.67;79.72;102795.97;5277670;28;20029;-66
2022/03/24 03:53:35;;;;;;;45.20;31.80;;;;;;;4.61;80.46;102817.75;5276801;28;20126;-68
2022/03/24 03:56:07;;;;;;;45.83;32.42;;;;;;;4.62;78.78;102798.69;5276414;28;20462;-68
2022/03/24 03:58:39;;;;;;;44.72;29.38;;;;;;;4.60;78.40;102804.81;5277655;28;20036;-67
2022/03/24 04:01:10;;;;;;;46.28;32.10;;;;;;;4.58;79.90;102806.59;5277693;28;20021;-69
2022/03/24 04:03:42;;;;;;;43.38;31.73;;;;;;;4.57;79.61;102810.09;5275879;28;20485;-67
2022/03/24 04:06:14;;;;;;;46.78;31.70;;;;;;;4.51;79.90;102798.16;5276563;28;20040;-67
2022/03/24 04:08:46;;;;;;;44.05;31.08;;;;;;;4.56;79.80;102811.00;5276546;28;20028;-68
2022/03/24 04:11:17;;;;;;;47.97;33.92;;;;;;;4.51;79.75;102805.06;5277139;28;20036;-67
2022/03/24 04:13:48;;;;;;;45.88;33.70;;;;;;;4.46;79.35;102799.16;5274646;28;20041;-68
2022/03/24 04:16:19;;;;;;;47.95;32.42;;;;;;;4.60;79.30;102804.81;5276623;28;20056;-69
2022/03/24 04:18:51;;;;;;;44.20;32.45;;;;;;;4.47;79.77;102808.63;5277147;28;20024;-67
2022/03/24 04:21:22;;;;;;;42.72;31.77;;;;;;;4.51;80.57;102805.06;5274809;28;20529;-70
2022/03/24 04:23:53;;;;;;;48.95;32.38;;;;;;;4.46;80.24;102809.53;5274329;28;20435;-68
2022/03/24 04:26:24;;;;;;;48.55;30.98;;;;;;;4.43;79.76;102801.84;5276726;28;20071;-67
2022/03/24 04:28:56;;;;;;;48.65;31.35;;;;;;;4.47;79.56;102801.72;5276163;28;20033;-69
2022/03/24 04:31:27;;;;;;;45.63;32.13;;;;;;;4.48;78.77;102806.03;5276842;28;20028;-68
2022/03/24 04:33:58;;;;;;;45.00;31.63;;;;;;;4.35;79.87;102804.63;5276016;28;20016;-67
2022/03/24 04:36:30;;;;;;;44.72;32.35;;;;;;;4.33;79.11;102801.25;5275848;28;20031;-67
2022/03/24 04:39:02;;;;;;;49.17;33.30;;;;;;;4.29;79.39;102799.63;5275732;28;20031;-67
2022/03/24 04:41:34;;;;;;;45.72;32.13;;;;;;;4.24;80.36;102804.06;5276774;28;20127;-68
2022/03/24 04:44:05;;;;;;;49.08;31.33;;;;;;;4.24;80.39;102801.47;5276419;28;20131;-67
2022/03/24 04:46:37;;;;;;;46.65;31.10;;;;;;;4.20;80.56;102805.06;5273697;28;20115;-69
2022/03/24 04:49:09;;;;;;;45.03;30.77;;;;;;;4.11;80.46;102799.22;5276183;28;20029;-68
2022/03/24 04:51:40;;;;;;;44.58;30.50;;;;;;;4.16;81.09;102804.28;5275866;28;20020;-69
2022/03/24 04:54:11;;;;;;;46.03;31.20;;;;;;;4.12;80.90;102808.69;5274818;28;20493;-67
2022/03/24 04:56:44;;;;;;;45.63;30.98;;;;;;;4.07;79.63;102797.59;5275900;28;20024;-67
2022/03/24 04:59:15;;;;;;;46.38;32.05;;;;;;;4.02;80.08;102802.06;5275171;28;20143;-68
2022/03/24 05:01:48;;;;;;;45.47;31.73;;;;;;;4.05;81.63;102814.09;5274062;28;20089;-69
2022/03/24 05:04:20;;;;;;;43.92;31.42;;;;;;;3.93;80.97;102807.47;5275350;28;20105;-69
2022/03/24 05:06:51;;;;;;;49.42;31.77;;;;;;;3.96;80.84;102803.97;5274376;28;20111;-68
2022/03/24 05:09:23;;;;;;;47.25;31.90;;;;;;;3.97;81.07;102816.88;5275531;28;20576;-67
2022/03/24 05:11:54;;;;;;;46.90;30.15;;;;;;;3.94;81.15;102811.78;5275106;28;20107;-69
2022/03/24 05:14:25;;;;;;;47.58;31.33;;;;;;;3.96;80.91;102815.19;5275179;28;20413;-71
2022/03/24 05:16:57;;;;;;;49.20;32.03;;;;;;;3.93;80.71;102820.44;5275699;28;20421;-69
2022/03/24 05:19:31;;;;;;;45.80;31.13;;;;;;;3.87;81.09;102815.44;5274330;28;20032;-66
2022/03/24 05:22:02;;;;;;;47.25;31.60;;;;;;;3.89;81.12;102818.81;5275495;28;20028;-67
2022/03/24 05:24:33;;;;;;;47.88;29.63;;;;;;;3.85;80.70;102814.59;5273826;28;20031;-67
2022/03/24 05:27:08;;;;;;;46.17;30.90;;;;;;;3.80;81.70;102811.28;5275784;28;20020;-69
2022/03/24 05:29:39;;;;;;;46.38;31.00;;;;;;;3.81;81.97;102818.16;5275002;28;20036;-70
2022/03/24 05:32:11;;;;;;;48.10;31.83;;;;;;;3.82;81.37;102825.03;5274951;28;20082;-67
2022/03/24 05:34:44;;;;;;;44.53;30.42;;;;;;;3.77;81.58;102822.56;5275005;28;20024;-68
2022/03/24 05:37:15;;;;;;;50.10;31.08;;;;;;;3.77;81.92;102826.91;5275785;28;20027;-67
2022/03/24 05:39:46;;;;;;;47.45;30.70;;;;;;;3.72;82.66;102824.44;5274216;28;20180;-67
2022/03/24 05:42:18;;;;;;;44.75;30.63;;;;;;;3.79;82.26;102832.88;5275081;28;20109;-66
2022/03/24 05:44:49;;;;;;;46.60;31.33;;;;;;;3.68;83.54;102837.50;5274739;28;20505;-70
2022/03/24 05:47:21;;;;;;;50.20;32.38;;;;;;;3.77;82.58;102827.75;5273719;28;20501;-68
2022/03/24 05:49:52;;;;;;;49.47;31.85;;;;;;;3.68;83.10;102827.16;5275470;28;20481;-67
2022/03/24 05:52:23;;;;;;;46.95;31.63;;;;;;;3.63;83.32;102833.25;5273721;28;20393;-67
2022/03/24 05:54:55;;;;;;;48.70;32.10;;;;;;;3.64;83.71;102837.56;5273536;28;20029;-66
2022/03/24 05:57:26;;;;;;;48.20;31.60;;;;;;;3.72;82.00;102844.31;5275290;28;20025;-67
2022/03/24 05:59:58;;;;;;;50.15;30.08;;;;;;;3.66;82.73;102840.97;5273525;28;20031;-67
2022/03/24 06:02:30;;;;;;;47.30;33.28;;;;;;;3.67;82.51;102836.63;5274492;28;20028;-67
2022/03/24 06:05:05;;;;;;;49.83;32.58;;;;;;;3.65;83.57;102838.44;5273383;28;20031;-69
2022/03/24 06:07:37;;;;;;;52.10;32.67;;;;;;;3.70;82.31;102849.53;5274891;28;20059;-67
2022/03/24 06:10:08;;;;;;;48.20;32.42;;;;;;;3.72;82.84;102847.75;5270887;28;20052;-67
2022/03/24 06:12:40;;;;;;;47.20;33.25;;;;;;;3.73;82.66;102851.19;5273154;28;20036;-68
2022/03/24 06:15:11;;;;;;;49.42;33.45;;;;;;;3.81;82.13;102846.69;5274486;28;20031;-66
2022/03/24 06:17:43;;;;;;;49.88;34.88;;;;;;;3.71;83.35;102852.97;5272483;28;20107;-67
2022/03/24 06:20:15;;;;;;;49.47;33.55;;;;;;;3.80;82.98;102847.56;5272927;28;20032;-68
2022/03/24 06:22:51;;;;;;;52.03;33.10;;;;;;;3.94;83.31;102850.69;5272197;28;20043;-67
2022/03/24 06:25:23;;;;;;;46.15;34.20;;;;;;;3.92;84.02;102844.69;5274912;28;20040;-67
2022/03/24 06:27:55;;;;;;;48.83;34.97;;;;;;;4.01;83.45;102852.22;5270027;28;20025;-68
2022/03/24 06:30:28;;;;;;;50.20;34.10;;;;;;;4.06;82.73;102845.19;5268712;28;20024;-67
2022/03/24 06:33:00;;;;;;;48.97;33.22;;;;;;;4.12;82.74;102849.34;5271865;28;20119;-69
2022/03/24 06:35:32;;;;;;;49.30;34.85;;;;;;;4.07;83.55;102852.06;5273164;28;20021;-67
2022/03/24 06:38:03;;;;;;;49.55;35.00;;;;;;;4.11;83.85;102843.31;5274839;28;21127;-68
2022/03/24 06:40:35;;;;;;;52.80;35.70;;;;;;;4.20;84.78;102846.56;5274290;28;20032;-69
2022/03/24 06:43:07;;;;;;;51.88;36.75;;;;;;;4.23;84.52;102846.47;5276919;28;20020;-68
2022/03/24 06:45:39;;;;;;;49.03;36.13;;;;;;;4.34;85.22;102841.88;5278351;28;20044;-68
2022/03/24 06:48:10;;;;;;;57.25;37.80;;;;;;;4.42;85.68;102849.44;5278011;28;20827;-69
2022/03/24 06:50:41;;;;;;;59.50;36.58;;;;;;;4.47;86.03;102851.03;5276190;28;20093;-68
2022/03/24 06:53:13;;;;;;;53.00;37.25;;;;;;;4.45;86.28;102852.81;5276082;28;20024;-68
2022/03/24 06:55:44;;;;;;;60.25;37.97;;;;;;;4.55;86.23;102849.09;5276154;28;20105;-70
2022/03/24 06:58:15;;;;;;;54.88;37.83;;;;;;;4.70;86.18;102849.53;5266801;28;20032;-69
2022/03/24 07:00:47;;;;;;;54.33;38.47;;;;;;;4.76;86.90;102851.97;5272390;28;20541;-68
2022/03/24 07:03:18;;;;;;;59.88;38.55;;;;;;;4.85;87.48;102859.50;5274443;28;20082;-68
2022/03/24 07:05:49;;;;;;;57.15;38.05;;;;;;;4.88;87.96;102851.59;5275049;28;20039;-68
2022/03/24 07:08:23;;;;;;;55.78;38.70;;;;;;;5.02;88.64;102848.63;5276415;28;20032;-68
2022/03/24 07:10:54;;;;;;;52.72;39.22;;;;;;;5.14;88.34;102853.44;5275746;28;20024;-69
2022/03/24 07:13:26;;;;;;;57.05;39.55;;;;;;;5.19;87.64;102853.31;5278138;28;20681;-69
2022/03/24 07:15:57;;;;;;;52.90;38.80;;;;;;;5.20;86.84;102853.28;5278328;28;20041;-70
2022/03/24 07:18:28;;;;;;;60.45;41.55;;;;;;;5.42;85.92;102858.69;5273120;28;20544;-69
2022/03/24 07:21:00;;;;;;;59.00;40.00;;;;;;;5.52;85.82;102859.22;5265376;28;20352;-72
2022/03/24 07:23:31;;;;;;;62.42;40.63;;;;;;;5.55;85.46;102859.97;5270840;28;20028;-68
2022/03/24 07:26:03;;;;;;;58.35;41.03;;;;;;;5.70;85.28;102858.66;5276071;28;20025;-69
2022/03/24 07:28:34;;;;;;;57.65;40.97;;;;;;;5.88;84.31;102858.97;5271965;28;20093;-70
2022/03/24 07:31:16;;;;;;;59.50;41.97;;;;;;;6.06;84.05;102867.06;5275621;28;20024;-69
2022/03/24 07:33:48;;;;;;;61.10;42.42;;;;;;;6.19;84.47;102866.63;5275957;28;20024;-68
2022/03/24 07:36:22;;;;;;;60.55;41.28;;;;;;;6.27;83.33;102868.06;5277633;28;20013;-68
2022/03/24 07:38:56;;;;;;;58.00;41.75;;;;;;;6.45;82.31;102866.56;5277094;28;20024;-69
2022/03/24 07:41:27;;;;;;;55.22;39.33;;;;;;;6.55;82.25;102867.09;5277074;28;20466;-69
2022/03/24 07:43:59;;;;;;;55.45;42.85;;;;;;;6.75;82.22;102862.03;5275615;28;20094;-68
2022/03/24 07:46:31;;;;;;;57.13;40.58;;;;;;;6.79;81.82;102849.75;5275499;28;20431;-68
2022/03/24 07:49:02;;;;;;;52.67;39.58;;;;;;;6.95;81.35;102856.09;5276974;28;20021;-70
2022/03/24 07:51:34;;;;;;;50.72;38.53;;;;;;;7.05;79.92;102864.41;5275970;28;20078;-71
2022/03/24 07:54:09;;;;;;;54.03;38.78;;;;;;;7.38;78.27;102862.25;5273607;28;20086;-70
2022/03/24 07:56:41;;;;;;;57.10;37.00;;;;;;;7.45;77.66;102862.88;5270303;28;20031;-69
2022/03/24 07:59:12;;;;;;;51.00;35.65;;;;;;;7.66;74.89;102866.41;5274447;28;20024;-68
2022/03/24 08:01:43;;;;;;;46.03;34.63;;;;;;;7.76;74.17;102872.91;5273480;28;20024;-70
2022/03/24 08:04:15;;;;;;;49.47;33.33;;;;;;;7.71;74.02;102872.28;5276566;28;20099;-69
2022/03/24 08:06:46;;;;;;;45.53;31.88;;;;;;;7.98;70.78;102865.91;5276641;28;20039;-70
2022/03/24 08:09:18;;;;;;;42.33;31.25;;;;;;;8.00;67.65;102873.69;5276582;28;20515;-69
2022/03/24 08:11:49;;;;;;;48.67;29.52;;;;;;;8.17;65.08;102870.38;5272927;28;20115;-67
2022/03/24 08:14:21;;;;;;;43.80;30.77;;;;;;;8.29;65.14;102875.06;5270329;28;20588;-68
2022/03/24 08:16:52;;;;;;;46.08;31.10;;;;;;;8.61;63.82;102875.50;5274107;28;20029;-69
2022/03/24 08:19:23;;;;;;;47.95;30.38;;;;;;;8.82;63.27;102863.22;5276533;28;20024;-68
2022/03/24 08:21:55;;;;;;;41.80;28.98;;;;;;;9.07;61.48;102869.03;5277081;28;20074;-69
2022/03/24 08:24:26;;;;;;;37.45;28.65;;;;;;;9.27;60.21;102873.31;5275542;28;20039;-69
2022/03/24 08:26:57;;;;;;;45.65;30.77;;;;;;;9.33;62.10;102870.44;5273021;28;20425;-69
2022/03/24 08:29:29;;;;;;;42.78;30.90;;;;;;;9.55;60.41;102872.03;5267576;28;20032;-71
2022/03/24 08:32:01;;;;;;;43.72;30.52;;;;;;;9.73;59.63;102873.75;5275899;28;20119;-68
2022/03/24 08:34:33;;;;;;;40.90;31.03;;;;;;;10.07;58.96;102874.69;5266924;28;20036;-68
2022/03/24 08:37:05;;;;;;;46.70;31.73;;;;;;;10.09;59.74;102881.56;5259921;28;20040;-68
2022/03/24 08:39:36;;;;;;;39.55;30.27;;;;;;;10.54;57.04;102871.47;5263410;28;20139;-69
2022/03/24 08:42:08;;;;;;;40.47;30.35;;;;;;;10.67;56.00;102875.13;5267053;28;20115;-69
2022/03/24 08:44:40;;;;;;;48.05;32.92;;;;;;;10.69;55.34;102871.50;5271376;28;20056;-68
2022/03/24 08:47:11;;;;;;;40.22;29.70;;;;;;;10.86;54.02;102881.06;5268940;28;20032;-69
2022/03/24 08:49:43;;;;;;;40.10;29.98;;;;;;;10.93;56.41;102885.06;5273646;28;20032;-71
2022/03/24 08:52:14;;;;;;;45.67;32.28;;;;;;;11.37;56.89;102879.19;5272537;28;20404;-71
2022/03/24 08:54:45;;;;;;;46.78;31.95;;;;;;;11.39;57.34;102877.28;5274435;28;20012;-68
2022/03/24 08:57:17;;;;;;;42.38;30.25;;;;;;;11.83;53.90;102880.97;5271032;28;20040;-68
2022/03/24 08:59:48;;;;;;;46.03;29.48;;;;;;;11.93;51.63;102875.16;5275534;28;20020;-70
2022/03/24 09:02:20;;;;;;;37.28;26.83;;;;;;;12.22;47.52;102879.63;5271237;28;20113;-68
2022/03/24 09:04:52;;;;;;;35.30;27.58;;;;;;;12.53;45.75;102881.25;5273562;28;20024;-70
2022/03/24 09:07:23;;;;;;;34.95;26.70;;;;;;;12.64;44.41;102876.19;5274503;28;20048;-68
2022/03/24 09:09:54;;;;;;;40.78;27.45;;;;;;;12.88;44.74;102887.00;5274470;28;20081;-68
2022/03/24 09:12:25;;;;;;;36.58;27.05;;;;;;;13.06;43.46;102882.34;5274913;28;20029;-69
2022/03/24 09:14:57;;;;;;;34.20;27.55;;;;;;;13.26;43.64;102878.47;5275406;28;20048;-69
2022/03/24 09:17:28;;;;;;;33.25;26.85;;;;;;;13.38;44.43;102888.25;5273293;28;20020;-69
2022/03/24 09:20:00;;;;;;;36.78;28.27;;;;;;;13.42;42.03;102883.63;5275622;28;20025;-68
2022/03/24 09:22:31;;;;;;;34.15;26.42;;;;;;;13.41;43.67;102881.91;5271947;28;20029;-70
2022/03/24 09:25:04;;;;;;;38.92;27.35;;;;;;;13.78;42.97;102890.91;5274626;28;20024;-71
2022/03/24 09:27:36;;;;;;;32.17;25.25;;;;;;;14.04;40.60;102881.28;5271368;28;20260;-68
2022/03/24 09:30:11;;;;;;;32.35;26.35;;;;;;;14.12;39.75;102894.78;5274421;28;20039;-68
2022/03/24 09:32:43;;;;;;;33.92;26.83;;;;;;;14.22;40.04;102889.75;5273103;28;20106;-68
2022/03/24 09:35:15;;;;;;;31.15;26.10;;;;;;;14.62;39.55;102890.50;5261315;28;20056;-70
2022/03/24 09:37:46;;;;;;;33.73;25.80;;;;;;;14.75;38.20;102885.25;5269030;28;20082;-69
2022/03/24 09:40:17;;;;;;;32.70;24.05;;;;;;;14.97;36.63;102884.56;5271464;28;20040;-70
2022/03/24 09:42:49;;;;;;;29.58;23.77;;;;;;;15.25;35.50;102886.91;5274445;28;20020;-69
2022/03/24 09:45:21;;;;;;;26.40;22.08;;;;;;;15.17;34.35;102891.06;5274199;28;21008;-71
2022/03/24 09:47:52;;;;;;;27.50;20.90;;;;;;;15.43;31.62;102891.81;5274015;28;20058;-67
2022/03/24 09:50:27;;;;;;;27.20;21.45;;;;;;;15.69;31.71;102889.94;5272387;28;20081;-67
2022/03/24 09:52:59;;;;;;;23.35;20.40;;;;;;;15.71;31.58;102875.66;5273572;28;20143;-67
2022/03/24 09:55:32;;;;;;;26.30;20.00;;;;;;;15.99;29.97;102878.88;5273765;28;20024;-68
2022/03/24 09:58:07;;;;;;;25.73;20.27;;;;;;;16.02;30.76;102881.28;5271645;28;20033;-69
2022/03/24 10:00:38;;;;;;;25.33;19.70;;;;;;;16.22;29.63;102882.44;5269352;28;20024;-73
2022/03/24 10:03:10;;;;;;;23.38;20.05;;;;;;;16.29;29.69;102883.66;5270294;28;20582;-68
2022/03/24 10:05:55;;;;;;;23.47;19.73;;;;;;;16.43;31.37;102882.56;5271826;28;20084;-68
2022/03/24 10:08:27;;;;;;;21.25;18.98;;;;;;;16.53;29.25;102888.84;5258742;28;20298;-68
2022/03/24 10:11:02;;;;;;;21.63;18.48;;;;;;;16.50;28.42;102887.25;5265350;28;20031;-68
2022/03/24 10:13:44;;;;;;;24.70;19.88;;;;;;;16.77;29.16;102879.00;5272362;28;20044;-68
2022/03/24 10:16:43;;;;;;;20.90;18.50;;;;;;;16.96;29.23;102877.53;5272283;28;20024;-68
2022/03/24 10:19:17;;;;;;;20.90;18.70;;;;;;;16.97;28.12;102882.72;5268387;28;20037;-69
2022/03/24 10:21:49;;;;;;;;;;;;;;;17.39;29.11;102871.44;5273432;28;20039;-68
2022/03/24 10:24:22;;;;;;;18.42;16.20;;;;;;;17.30;27.60;102864.22;5274037;28;20005;-71
2022/03/24 10:27:03;;;;;;;17.85;15.70;;;;;;;17.43;26.80;102871.06;5272995;28;20028;-70
2022/03/24 10:29:35;;;;;;;16.40;14.20;;;;;;;17.50;24.33;102861.66;5272822;28;20025;-70
2022/03/24 10:32:16;;;;;;;19.17;15.98;;;;;;;17.67;26.15;102862.88;5273335;28;20029;-69
2022/03/24 10:34:48;;;;;;;19.35;16.45;;;;;;;17.60;25.27;102866.19;5273952;28;20038;-69
2022/03/24 10:37:20;;;;;;;19.55;15.63;;;;;;;17.75;25.54;102865.78;5274037;28;20021;-69
2022/03/24 10:39:55;;;;;;;18.70;15.90;;;;;;;17.81;24.66;102869.75;5269694;28;20098;-69
2022/03/24 10:42:29;;;;;;;19.30;17.25;;;;;;;17.87;26.54;102866.56;5273476;28;20086;-70
2022/03/24 10:45:07;;;;;;;18.83;15.85;;;;;;;17.95;25.29;102865.91;5274304;28;20028;-68
2022/03/24 10:47:49;;;;;;;19.15;16.42;;;;;;;17.89;25.44;102863.78;5273086;28;20101;-70
2022/03/24 10:50:23;;;;;;;18.45;16.55;;;;;;;18.11;25.11;102866.31;5274011;28;20024;-69
2022/03/24 10:53:00;;;;;;;18.77;16.75;;;;;;;18.03;24.70;102857.31;5273082;28;20077;-70
2022/03/24 10:55:43;;;;;;;20.08;17.73;;;;;;;18.22;25.47;102858.28;5273479;28;20737;-68
2022/03/24 10:58:21;;;;;;;18.88;16.27;;;;;;;18.22;24.37;102868.91;5274130;28;20397;-70
2022/03/24 11:00:55;;;;;;;19.08;16.88;;;;;;;18.21;24.14;102856.56;5274657;28;20488;-69
2022/03/24 11:03:27;;;;;;;22.95;17.77;;;;;;;18.34;24.91;102858.22;5272633;28;20154;-69
2022/03/24 11:06:07;;;;;;;21.73;17.27;;;;;;;18.41;25.22;102861.97;5272343;28;20032;-69
2022/03/24 11:08:43;;;;;;;22.67;17.35;;;;;;;18.30;24.38;102867.41;5273033;28;20103;-70
2022/03/24 11:11:16;;;;;;;21.95;17.17;;;;;;;18.18;23.99;102866.59;5274004;28;20059;-69
2022/03/24 11:13:59;;;;;;;19.70;17.35;;;;;;;18.47;24.31;102859.66;5272721;28;20365;-69
2022/03/24 11:16:34;;;;;;;22.50;15.57;;;;;;;18.56;25.48;102855.38;5273974;28;20336;-69
2022/03/24 11:19:18;;;;;;;18.90;14.32;;;;;;;18.69;24.72;102858.63;5273587;28;20500;-70
2022/03/24 11:21:57;;;;;;;19.15;14.70;;;;;;;18.63;24.16;102848.53;5272955;28;20037;-72
2022/03/24 11:24:29;;;;;;;21.00;16.58;;;;;;;18.55;24.22;102850.19;5273655;28;20139;-70
2022/03/24 11:27:01;;;;;;;19.55;17.15;;;;;;;18.55;24.78;102856.31;5273835;28;20447;-69
2022/03/24 11:29:33;;;;;;;19.92;17.63;;;;;;;18.53;25.01;102852.97;5273747;28;20039;-71
2022/03/24 11:32:05;;;;;;;22.17;18.15;;;;;;;18.79;24.37;102855.19;5274727;28;20028;-69
2022/03/24 11:34:37;;;;;;;22.27;18.33;;;;;;;18.75;25.01;102848.47;5273455;28;20024;-71
2022/03/24 11:37:08;;;;;;;20.90;17.77;;;;;;;18.83;26.83;102846.84;5275526;28;20282;-69
2022/03/24 11:40:01;;;;;;;23.08;18.52;;;;;;;18.89;24.20;102848.94;5274729;28;20493;-69